createdAt,value
2019-01-21T00:03:29.206Z,89.63
2019-01-21T00:09:55.030Z,90.05
2019-01-21T00:15:43.286Z,89.72
2019-01-21T00:22:12.326Z,89.75
2019-01-21T00:28:38.147Z,89.98
2019-01-21T00:35:03.967Z,89.82
2019-01-21T00:41:30.355Z,89.81
2019-01-21T00:48:00.296Z,89.93
2019-01-21T00:54:26.479Z,89.71
2019-01-21T01:00:52.298Z,89.88
2019-01-21T01:07:19.893Z,89.80
2019-01-21T01:13:43.692Z,89.89
2019-01-21T01:20:14.814Z,89.70
2019-01-21T01:26:40.629Z,89.87
2019-01-21T01:33:11.081Z,89.98
2019-01-21T01:39:39.350Z,89.79
2019-01-21T01:49:30.855Z,89.79
2019-01-21T01:56:09.813Z,89.95
2019-01-21T02:02:35.972Z,90.10
2019-01-21T02:09:01.789Z,90.28
2019-01-21T02:15:27.611Z,90.24
2019-01-21T02:21:56.121Z,89.87
2019-01-21T02:28:58.389Z,89.78
2019-01-21T02:36:07.648Z,89.84
2019-01-21T02:43:32.074Z,89.60
2019-01-21T02:51:04.771Z,89.58
2019-01-21T02:58:56.443Z,89.54
2019-01-21T03:06:21.799Z,89.64
2019-01-21T03:13:54.331Z,89.37
2019-01-21T03:23:00.741Z,89.98
2019-01-21T03:30:14.037Z,89.77
2019-01-21T03:37:29.339Z,89.66
2019-01-21T03:44:58.539Z,89.32
2019-01-21T03:52:31.973Z,89.31
2019-01-21T03:59:32.232Z,89.63
2019-01-21T04:06:44.367Z,89.87
2019-01-21T04:14:20.664Z,89.45
2019-01-21T04:20:48.071Z,89.72
2019-01-21T04:27:39.808Z,89.68
2019-01-21T04:35:05.470Z,89.91
2019-01-21T04:42:42.080Z,89.90
2019-01-21T04:49:51.362Z,89.57
2019-01-21T04:57:24.468Z,89.70
2019-01-21T05:04:55.035Z,89.72
2019-01-21T05:12:29.781Z,89.80
2019-01-21T05:19:38.018Z,89.21
2019-01-21T05:26:58.076Z,89.40
2019-01-21T05:34:42.561Z,89.33
2019-01-21T05:42:30.338Z,89.21
2019-01-21T05:49:46.928Z,89.03
2019-01-21T05:57:20.456Z,89.49
2019-01-21T06:04:48.529Z,89.88
2019-01-21T06:12:05.183Z,89.80
2019-01-21T06:18:56.968Z,90.07
2019-01-21T06:25:59.116Z,90.17
2019-01-21T06:33:00.192Z,90.50
2019-01-21T06:40:54.927Z,90.39
2019-01-21T06:48:15.262Z,90.20
2019-01-21T06:55:19.872Z,90.08
2019-01-21T07:09:49.480Z,90.35
2019-01-21T07:17:00.527Z,90.68
2019-01-21T07:24:56.965Z,90.48
2019-01-21T07:31:54.611Z,91.20
2019-01-21T07:39:26.491Z,90.98
2019-01-21T07:46:58.560Z,92.17
2019-01-21T07:54:51.242Z,92.37
2019-01-21T08:02:05.159Z,92.36
2019-01-21T08:09:26.037Z,92.46
2019-01-21T08:17:12.436Z,92.29
2019-01-21T08:24:13.512Z,92.84
2019-01-21T08:30:59.708Z,92.83
2019-01-21T08:38:43.924Z,93.47
2019-01-21T08:46:16.548Z,93.87
2019-01-21T08:53:24.017Z,94.24
2019-01-21T09:01:08.619Z,94.61
2019-01-21T09:08:37.558Z,94.97
2019-01-21T09:16:31.759Z,95.15
2019-01-21T09:23:51.107Z,95.78
2019-01-21T09:30:46.221Z,95.88
2019-01-21T09:38:32.847Z,96.50
2019-01-21T09:45:27.947Z,96.64
2019-01-21T09:52:13.763Z,97.23
2019-01-21T09:58:55.578Z,97.76
2019-01-21T10:05:41.971Z,98.15
2019-01-21T10:13:28.592Z,99.03
2019-01-21T10:20:26.729Z,99.79
2019-01-21T10:32:19.378Z,100.00
2019-01-21T10:39:58.136Z,100.00
2019-01-21T10:47:20.510Z,100.00
2019-01-21T10:54:20.767Z,100.00
2019-01-21T11:01:56.249Z,100.00
2019-01-21T11:09:32.904Z,100.00
2019-01-21T11:16:11.511Z,100.00
2019-01-21T11:22:52.819Z,100.00
2019-01-21T11:33:45.280Z,100.00
2019-01-21T11:41:30.332Z,100.00
2019-01-21T11:48:59.332Z,100.00
2019-01-21T11:56:31.810Z,100.00
2019-01-21T12:03:38.689Z,100.00
2019-01-21T12:10:52.330Z,100.00
2019-01-21T12:18:20.578Z,100.00
2019-01-21T12:25:06.788Z,100.00
2019-01-21T12:36:04.802Z,99.69
2019-01-21T12:43:10.310Z,98.81
2019-01-21T12:50:09.672Z,98.55
2019-01-21T12:57:39.908Z,98.44
2019-01-21T13:04:54.444Z,98.47
2019-01-21T13:12:10.762Z,98.70
2019-01-21T13:19:50.311Z,98.91
2019-01-21T13:27:27.430Z,99.32
2019-01-21T13:38:33.040Z,99.40
2019-01-21T13:46:20.814Z,99.94
2019-01-21T13:53:45.238Z,99.41
2019-01-21T14:00:44.265Z,99.50
2019-01-21T14:08:04.592Z,99.28
2019-01-21T14:15:49.573Z,98.83
2019-01-21T14:22:32.546Z,99.16
2019-01-21T14:29:51.912Z,99.20
2019-01-21T14:40:58.512Z,98.95
2019-01-21T14:48:17.863Z,99.23
2019-01-21T14:55:25.092Z,99.08
2019-01-21T15:02:49.235Z,98.68
2019-01-21T15:10:30.923Z,99.00
2019-01-21T15:18:05.565Z,98.75
2019-01-21T15:25:03.408Z,98.58
2019-01-21T15:32:35.945Z,98.32
2019-01-21T15:42:52.091Z,98.04
2019-01-21T15:49:48.144Z,97.75
2019-01-21T15:56:44.307Z,97.72
2019-01-21T16:04:14.876Z,97.61
2019-01-21T16:11:00.793Z,97.53
2019-01-21T16:18:00.154Z,97.63
2019-01-21T16:24:40.846Z,97.23
2019-01-21T16:32:08.119Z,96.73
2019-01-21T16:39:18.616Z,96.70
2019-01-21T16:45:42.418Z,96.94
2019-01-21T16:52:14.501Z,96.91
2019-01-21T16:58:41.334Z,97.04
2019-01-21T17:05:09.798Z,96.33
2019-01-21T17:11:56.953Z,96.41
2019-01-21T17:18:12.559Z,97.06
2019-01-21T17:24:06.423Z,96.53
2019-01-21T17:30:38.043Z,96.62
2019-01-21T17:37:05.945Z,96.54
2019-01-21T17:43:33.844Z,96.71
2019-01-21T17:50:00.509Z,96.25
2019-01-21T17:56:26.635Z,96.42
2019-01-21T18:02:52.206Z,96.09
2019-01-21T18:09:18.064Z,96.38
2019-01-21T18:19:36.155Z,95.91
2019-01-21T18:26:03.233Z,96.30
2019-01-21T18:32:31.061Z,96.23
2019-01-21T18:38:56.883Z,96.10
2019-01-21T18:45:31.432Z,96.10
2019-01-21T18:51:56.464Z,95.85
2019-01-21T18:58:34.543Z,95.67
2019-01-21T19:05:13.499Z,95.47
2019-01-21T19:11:50.419Z,95.35
2019-01-21T19:21:53.693Z,95.41
2019-01-21T19:28:21.234Z,95.77
2019-01-21T19:34:47.061Z,95.70
2019-01-21T19:41:14.647Z,95.68
2019-01-21T19:47:38.448Z,95.37
2019-01-21T19:53:30.634Z,95.07
2019-01-21T19:59:55.748Z,95.71
2019-01-21T20:06:21.812Z,95.14
2019-01-21T20:12:45.392Z,95.22
2019-01-21T20:23:05.537Z,95.31
2019-01-21T20:29:47.725Z,94.91
2019-01-21T20:36:23.455Z,94.87
2019-01-21T20:43:03.233Z,94.77
2019-01-21T20:49:42.189Z,94.33
2019-01-21T20:55:45.919Z,94.04
2019-01-21T21:02:26.938Z,94.40
2019-01-21T21:09:18.198Z,93.96
2019-01-21T21:15:57.946Z,93.91
2019-01-21T21:26:00.888Z,93.08
2019-01-21T21:32:28.783Z,92.97
2019-01-21T21:38:55.452Z,93.12
2019-01-21T21:45:26.125Z,92.92
2019-01-21T21:51:53.296Z,92.65
2019-01-21T21:58:19.964Z,92.86
2019-01-21T22:04:44.142Z,92.53
2019-01-21T22:11:09.957Z,92.36
2019-01-21T22:17:35.782Z,92.56
2019-01-21T22:27:38.750Z,92.29
2019-01-21T22:34:18.603Z,92.39
2019-01-21T22:41:00.427Z,92.14
2019-01-21T22:47:39.380Z,91.99
2019-01-21T22:54:16.569Z,91.76
2019-01-21T23:01:17.379Z,91.77
2019-01-21T23:07:56.318Z,91.37
2019-01-21T23:14:24.540Z,91.55
2019-01-21T23:20:15.658Z,91.52
2019-01-21T23:30:20.999Z,91.10
2019-01-21T23:36:57.558Z,91.55
2019-01-21T23:43:33.649Z,91.22
2019-01-21T23:50:13.424Z,91.13
2019-01-21T23:56:52.385Z,90.96
